sensor_id;sensor_type;location;lat;lon;timestamp;temperature;humidity
24103;DHT22;12278;53.058;9.028;2022-09-19T00:01:16;10.00;99.90
24103;DHT22;12278;53.058;9.028;2022-09-19T00:05:18;9.90;99.90
24103;DHT22;12278;53.058;9.028;2022-09-19T00:09:21;10.00;99.90
24103;DHT22;12278;53.058;9.028;2022-09-19T00:13:23;9.90;99.90
24103;DHT22;12278;53.058;9.028;2022-09-19T00:17:24;9.90;99.90
24103;DHT22;12278;53.058;9.028;2022-09-19T00:21:31;9.90;99.90
24103;DHT22;12278;53.058;9.028;2022-09-19T00:25:34;9.90;99.90
24103;DHT22;12278;53.058;9.028;2022-09-19T00:29:38;9.80;99.90
24103;DHT22;12278;53.058;9.028;2022-09-19T00:33:42;9.80;99.90
24103;DHT22;12278;53.058;9.028;2022-09-19T00:37:47;9.80;99.90
24103;DHT22;12278;53.058;9.028;2022-09-19T00:41:48;9.80;99.90
24103;DHT22;12278;53.058;9.028;2022-09-19T00:45:48;9.80;99.90
24103;DHT22;12278;53.058;9.028;2022-09-19T00:49:49;9.80;99.90
24103;DHT22;12278;53.058;9.028;2022-09-19T00:53:53;9.80;99.90
24103;DHT22;12278;53.058;9.028;2022-09-19T00:58:16;9.70;99.90
24103;DHT22;12278;53.058;9.028;2022-09-19T01:02:19;9.80;99.90
24103;DHT22;12278;53.058;9.028;2022-09-19T01:11:32;9.70;99.90
24103;DHT22;12278;53.058;9.028;2022-09-19T01:28:32;9.70;99.90
24103;DHT22;12278;53.058;9.028;2022-09-19T01:32:48;9.60;99.90
24103;DHT22;12278;53.058;9.028;2022-09-19T01:37:08;9.60;99.90
24103;DHT22;12278;53.058;9.028;2022-09-19T01:41:15;9.60;99.90
24103;DHT22;12278;53.058;9.028;2022-09-19T01:45:17;9.50;99.90
24103;DHT22;12278;53.058;9.028;2022-09-19T01:53:47;9.50;99.90
24103;DHT22;12278;53.058;9.028;2022-09-19T01:58:20;9.60;99.90
24103;DHT22;12278;53.058;9.028;2022-09-19T02:02:40;9.60;99.90
24103;DHT22;12278;53.058;9.028;2022-09-19T02:07:22;9.60;99.90
24103;DHT22;12278;53.058;9.028;2022-09-19T02:11:48;9.60;99.90
24103;DHT22;12278;53.058;9.028;2022-09-19T02:15:55;9.60;99.90
24103;DHT22;12278;53.058;9.028;2022-09-19T02:20:07;9.60;99.90
24103;DHT22;12278;53.058;9.028;2022-09-19T02:24:14;9.60;99.90
24103;DHT22;12278;53.058;9.028;2022-09-19T02:28:23;9.70;99.90
24103;DHT22;12278;53.058;9.028;2022-09-19T02:32:31;9.80;99.90
24103;DHT22;12278;53.058;9.028;2022-09-19T02:37:15;9.80;99.90
24103;DHT22;12278;53.058;9.028;2022-09-19T02:41:44;9.80;99.90
24103;DHT22;12278;53.058;9.028;2022-09-19T02:45:55;9.70;99.90
24103;DHT22;12278;53.058;9.028;2022-09-19T02:50:08;9.90;99.90
24103;DHT22;12278;53.058;9.028;2022-09-19T02:54:22;9.90;99.90
24103;DHT22;12278;53.058;9.028;2022-09-19T02:58:35;10.00;99.90
24103;DHT22;12278;53.058;9.028;2022-09-19T03:03:02;10.20;99.90
24103;DHT22;12278;53.058;9.028;2022-09-19T03:07:30;10.30;99.90
24103;DHT22;12278;53.058;9.028;2022-09-19T03:11:39;10.50;99.90
24103;DHT22;12278;53.058;9.028;2022-09-19T03:16:00;10.50;99.90
24103;DHT22;12278;53.058;9.028;2022-09-19T03:20:07;10.60;99.90
24103;DHT22;12278;53.058;9.028;2022-09-19T03:24:11;10.50;99.90
24103;DHT22;12278;53.058;9.028;2022-09-19T03:28:12;10.60;99.90
24103;DHT22;12278;53.058;9.028;2022-09-19T03:32:16;10.50;99.90
24103;DHT22;12278;53.058;9.028;2022-09-19T03:36:18;10.50;99.90
24103;DHT22;12278;53.058;9.028;2022-09-19T03:40:20;10.40;99.90
24103;DHT22;12278;53.058;9.028;2022-09-19T03:44:22;10.40;99.90
24103;DHT22;12278;53.058;9.028;2022-09-19T03:48:23;10.30;99.90
24103;DHT22;12278;53.058;9.028;2022-09-19T03:52:26;10.40;99.90
24103;DHT22;12278;53.058;9.028;2022-09-19T03:56:38;10.30;99.90
24103;DHT22;12278;53.058;9.028;2022-09-19T04:00:39;10.20;99.90
24103;DHT22;12278;53.058;9.028;2022-09-19T04:04:40;10.20;99.90
24103;DHT22;12278;53.058;9.028;2022-09-19T04:08:49;10.30;99.90
24103;DHT22;12278;53.058;9.028;2022-09-19T04:12:51;10.10;99.90
24103;DHT22;12278;53.058;9.028;2022-09-19T04:16:52;10.20;99.90
24103;DHT22;12278;53.058;9.028;2022-09-19T04:20:53;10.20;99.90
24103;DHT22;12278;53.058;9.028;2022-09-19T04:24:54;10.00;99.90
24103;DHT22;12278;53.058;9.028;2022-09-19T04:28:55;10.10;99.90
24103;DHT22;12278;53.058;9.028;2022-09-19T04:32:56;10.10;99.90
24103;DHT22;12278;53.058;9.028;2022-09-19T04:36:58;10.10;99.90
24103;DHT22;12278;53.058;9.028;2022-09-19T04:41:03;10.10;99.90
24103;DHT22;12278;53.058;9.028;2022-09-19T04:45:04;10.10;99.90
24103;DHT22;12278;53.058;9.028;2022-09-19T04:49:05;10.10;99.90
24103;DHT22;12278;53.058;9.028;2022-09-19T04:53:06;10.00;99.90
24103;DHT22;12278;53.058;9.028;2022-09-19T04:57:09;10.00;99.90
24103;DHT22;12278;53.058;9.028;2022-09-19T05:01:11;9.90;99.90
24103;DHT22;12278;53.058;9.028;2022-09-19T05:05:14;9.90;99.90
24103;DHT22;12278;53.058;9.028;2022-09-19T05:09:18;9.90;99.90
24103;DHT22;12278;53.058;9.028;2022-09-19T05:13:30;9.80;99.90
24103;DHT22;12278;53.058;9.028;2022-09-19T05:17:33;9.80;99.90
24103;DHT22;12278;53.058;9.028;2022-09-19T05:21:34;9.80;99.90
24103;DHT22;12278;53.058;9.028;2022-09-19T05:25:37;9.90;99.90
24103;DHT22;12278;53.058;9.028;2022-09-19T05:29:41;9.90;99.90
24103;DHT22;12278;53.058;9.028;2022-09-19T05:33:41;9.80;99.90
24103;DHT22;12278;53.058;9.028;2022-09-19T05:37:44;9.80;99.90
24103;DHT22;12278;53.058;9.028;2022-09-19T05:41:46;9.80;99.90
24103;DHT22;12278;53.058;9.028;2022-09-19T05:45:47;9.80;99.90
24103;DHT22;12278;53.058;9.028;2022-09-19T05:49:52;9.80;99.90
24103;DHT22;12278;53.058;9.028;2022-09-19T05:53:53;9.80;99.90
24103;DHT22;12278;53.058;9.028;2022-09-19T05:57:57;9.80;99.90
24103;DHT22;12278;53.058;9.028;2022-09-19T06:01:58;10.00;99.90
24103;DHT22;12278;53.058;9.028;2022-09-19T06:06:05;10.10;99.90
24103;DHT22;12278;53.058;9.028;2022-09-19T06:10:11;10.30;99.90
24103;DHT22;12278;53.058;9.028;2022-09-19T06:14:13;10.50;99.90
24103;DHT22;12278;53.058;9.028;2022-09-19T06:18:14;10.60;99.90
24103;DHT22;12278;53.058;9.028;2022-09-19T06:22:14;10.70;99.90
24103;DHT22;12278;53.058;9.028;2022-09-19T06:26:15;10.90;99.90
24103;DHT22;12278;53.058;9.028;2022-09-19T06:30:16;11.10;99.90
24103;DHT22;12278;53.058;9.028;2022-09-19T06:34:18;11.00;99.90
24103;DHT22;12278;53.058;9.028;2022-09-19T06:38:18;11.20;99.90
24103;DHT22;12278;53.058;9.028;2022-09-19T06:42:19;11.40;99.90
24103;DHT22;12278;53.058;9.028;2022-09-19T06:46:20;11.40;99.90
24103;DHT22;12278;53.058;9.028;2022-09-19T06:50:20;11.60;99.90
24103;DHT22;12278;53.058;9.028;2022-09-19T06:54:21;11.90;99.90
24103;DHT22;12278;53.058;9.028;2022-09-19T06:58:23;11.90;99.90
24103;DHT22;12278;53.058;9.028;2022-09-19T07:02:26;12.00;99.90
24103;DHT22;12278;53.058;9.028;2022-09-19T07:06:26;12.10;99.90
24103;DHT22;12278;53.058;9.028;2022-09-19T07:10:27;12.30;99.90
24103;DHT22;12278;53.058;9.028;2022-09-19T07:14:28;12.60;99.90
24103;DHT22;12278;53.058;9.028;2022-09-19T07:18:30;13.00;99.90
24103;DHT22;12278;53.058;9.028;2022-09-19T07:22:35;13.10;99.90
24103;DHT22;12278;53.058;9.028;2022-09-19T07:26:36;13.20;99.90
24103;DHT22;12278;53.058;9.028;2022-09-19T07:30:37;13.50;99.90
24103;DHT22;12278;53.058;9.028;2022-09-19T07:34:38;13.70;99.90
24103;DHT22;12278;53.058;9.028;2022-09-19T07:38:39;13.90;99.90
24103;DHT22;12278;53.058;9.028;2022-09-19T07:42:40;14.10;99.90
24103;DHT22;12278;53.058;9.028;2022-09-19T07:46:41;14.20;99.90
24103;DHT22;12278;53.058;9.028;2022-09-19T07:51:02;14.30;99.90
24103;DHT22;12278;53.058;9.028;2022-09-19T07:55:03;14.70;99.90
24103;DHT22;12278;53.058;9.028;2022-09-19T07:59:05;15.10;99.90
24103;DHT22;12278;53.058;9.028;2022-09-19T08:03:09;15.30;99.90
24103;DHT22;12278;53.058;9.028;2022-09-19T08:07:12;15.20;99.90
24103;DHT22;12278;53.058;9.028;2022-09-19T08:11:12;15.50;99.90
24103;DHT22;12278;53.058;9.028;2022-09-19T08:15:14;15.60;99.90
24103;DHT22;12278;53.058;9.028;2022-09-19T08:19:16;15.60;99.90
24103;DHT22;12278;53.058;9.028;2022-09-19T08:23:19;15.90;99.90
24103;DHT22;12278;53.058;9.028;2022-09-19T08:27:20;15.80;99.90
24103;DHT22;12278;53.058;9.028;2022-09-19T08:31:21;16.00;99.90
24103;DHT22;12278;53.058;9.028;2022-09-19T08:35:24;16.10;99.90
24103;DHT22;12278;53.058;9.028;2022-09-19T08:39:25;16.30;99.90
24103;DHT22;12278;53.058;9.028;2022-09-19T08:47:55;16.60;99.90
24103;DHT22;12278;53.058;9.028;2022-09-19T08:52:01;16.70;99.90
24103;DHT22;12278;53.058;9.028;2022-09-19T08:56:08;16.90;99.90
24103;DHT22;12278;53.058;9.028;2022-09-19T09:00:40;17.40;99.90
24103;DHT22;12278;53.058;9.028;2022-09-19T09:04:43;17.20;99.90
24103;DHT22;12278;53.058;9.028;2022-09-19T09:09:18;17.10;99.90
24103;DHT22;12278;53.058;9.028;2022-09-19T09:22:40;17.00;99.90
24103;DHT22;12278;53.058;9.028;2022-09-19T09:26:46;16.90;99.90
24103;DHT22;12278;53.058;9.028;2022-09-19T09:30:53;16.80;99.90
24103;DHT22;12278;53.058;9.028;2022-09-19T09:39:38;16.80;99.90
24103;DHT22;12278;53.058;9.028;2022-09-19T09:48:32;17.10;99.90
24103;DHT22;12278;53.058;9.028;2022-09-19T09:52:48;17.30;99.90
24103;DHT22;12278;53.058;9.028;2022-09-19T09:57:14;18.40;99.90
24103;DHT22;12278;53.058;9.028;2022-09-19T10:01:48;17.70;99.90
24103;DHT22;12278;53.058;9.028;2022-09-19T10:06:25;17.20;99.90
24103;DHT22;12278;53.058;9.028;2022-09-19T10:10:31;17.00;99.90
24103;DHT22;12278;53.058;9.028;2022-09-19T10:14:36;16.60;99.90
24103;DHT22;12278;53.058;9.028;2022-09-19T10:18:45;16.60;99.90
24103;DHT22;12278;53.058;9.028;2022-09-19T10:22:49;16.90;99.90
24103;DHT22;12278;53.058;9.028;2022-09-19T10:26:50;16.80;99.90
24103;DHT22;12278;53.058;9.028;2022-09-19T10:30:57;16.60;99.90
24103;DHT22;12278;53.058;9.028;2022-09-19T10:35:00;16.30;99.90
24103;DHT22;12278;53.058;9.028;2022-09-19T10:39:08;15.70;99.90
24103;DHT22;12278;53.058;9.028;2022-09-19T10:43:20;15.50;99.90
24103;DHT22;12278;53.058;9.028;2022-09-19T10:47:23;15.50;99.90
24103;DHT22;12278;53.058;9.028;2022-09-19T10:51:31;15.60;99.90
24103;DHT22;12278;53.058;9.028;2022-09-19T10:55:36;15.90;99.90
24103;DHT22;12278;53.058;9.028;2022-09-19T10:59:42;16.80;99.90
24103;DHT22;12278;53.058;9.028;2022-09-19T11:04:03;17.20;99.90
24103;DHT22;12278;53.058;9.028;2022-09-19T11:08:24;18.00;99.90
24103;DHT22;12278;53.058;9.028;2022-09-19T11:12:27;18.50;99.90
24103;DHT22;12278;53.058;9.028;2022-09-19T11:21:53;17.70;99.90
24103;DHT22;12278;53.058;9.028;2022-09-19T11:26:41;16.70;99.90
24103;DHT22;12278;53.058;9.028;2022-09-19T11:35:50;15.50;99.90
24103;DHT22;12278;53.058;9.028;2022-09-19T11:57:10;16.20;99.90
24103;DHT22;12278;53.058;9.028;2022-09-19T12:06:12;17.60;99.90
24103;DHT22;12278;53.058;9.028;2022-09-19T12:10:30;18.30;99.90
24103;DHT22;12278;53.058;9.028;2022-09-19T12:14:40;18.50;99.90
24103;DHT22;12278;53.058;9.028;2022-09-19T12:18:50;18.50;99.90
24103;DHT22;12278;53.058;9.028;2022-09-19T12:28:01;18.30;99.90
24103;DHT22;12278;53.058;9.028;2022-09-19T12:36:50;16.20;99.90
24103;DHT22;12278;53.058;9.028;2022-09-19T12:50:52;12.50;99.90
24103;DHT22;12278;53.058;9.028;2022-09-19T12:59:23;12.30;99.90
24103;DHT22;12278;53.058;9.028;2022-09-19T13:03:31;12.10;99.90
24103;DHT22;12278;53.058;9.028;2022-09-19T13:12:08;12.50;99.90
24103;DHT22;12278;53.058;9.028;2022-09-19T13:16:26;12.70;99.90
24103;DHT22;12278;53.058;9.028;2022-09-19T13:20:34;13.40;99.90
24103;DHT22;12278;53.058;9.028;2022-09-19T13:24:57;13.80;99.90
24103;DHT22;12278;53.058;9.028;2022-09-19T13:29:00;14.60;99.90
24103;DHT22;12278;53.058;9.028;2022-09-19T13:33:03;16.70;99.90
24103;DHT22;12278;53.058;9.028;2022-09-19T13:41:54;18.70;99.90
24103;DHT22;12278;53.058;9.028;2022-09-19T13:46:05;21.50;99.90
24103;DHT22;12278;53.058;9.028;2022-09-19T14:03:27;21.80;99.90
24103;DHT22;12278;53.058;9.028;2022-09-19T14:12:00;24.70;99.90
24103;DHT22;12278;53.058;9.028;2022-09-19T14:16:08;26.40;99.50
24103;DHT22;12278;53.058;9.028;2022-09-19T14:20:45;26.20;99.90
24103;DHT22;12278;53.058;9.028;2022-09-19T14:24:49;25.10;96.70
24103;DHT22;12278;53.058;9.028;2022-09-19T14:38:29;23.10;96.90
24103;DHT22;12278;53.058;9.028;2022-09-19T14:43:03;24.10;96.70
24103;DHT22;12278;53.058;9.028;2022-09-19T14:47:17;24.40;96.00
24103;DHT22;12278;53.058;9.028;2022-09-19T14:51:36;25.20;94.30
24103;DHT22;12278;53.058;9.028;2022-09-19T14:56:10;24.40;95.50
24103;DHT22;12278;53.058;9.028;2022-09-19T15:00:21;25.00;95.10
24103;DHT22;12278;53.058;9.028;2022-09-19T15:04:24;24.30;94.70
24103;DHT22;12278;53.058;9.028;2022-09-19T15:08:26;24.30;94.60
24103;DHT22;12278;53.058;9.028;2022-09-19T15:12:36;24.70;94.50
24103;DHT22;12278;53.058;9.028;2022-09-19T15:16:37;24.10;93.20
24103;DHT22;12278;53.058;9.028;2022-09-19T15:20:39;22.80;94.10
24103;DHT22;12278;53.058;9.028;2022-09-19T15:24:44;23.20;94.70
24103;DHT22;12278;53.058;9.028;2022-09-19T15:29:04;22.80;94.70
24103;DHT22;12278;53.058;9.028;2022-09-19T15:33:19;23.10;93.20
24103;DHT22;12278;53.058;9.028;2022-09-19T15:37:24;22.90;93.60
24103;DHT22;12278;53.058;9.028;2022-09-19T15:41:33;22.60;93.70
24103;DHT22;12278;53.058;9.028;2022-09-19T15:49:58;23.10;93.80
24103;DHT22;12278;53.058;9.028;2022-09-19T15:54:15;23.00;93.50
24103;DHT22;12278;53.058;9.028;2022-09-19T15:58:20;21.60;94.50
24103;DHT22;12278;53.058;9.028;2022-09-19T16:02:37;19.60;97.50
24103;DHT22;12278;53.058;9.028;2022-09-19T16:06:55;17.80;99.90
24103;DHT22;12278;53.058;9.028;2022-09-19T16:11:43;16.90;99.90
24103;DHT22;12278;53.058;9.028;2022-09-19T16:15:46;16.40;99.90
24103;DHT22;12278;53.058;9.028;2022-09-19T16:19:48;15.90;99.90
24103;DHT22;12278;53.058;9.028;2022-09-19T16:23:50;15.80;99.90
24103;DHT22;12278;53.058;9.028;2022-09-19T16:27:53;15.60;99.90
24103;DHT22;12278;53.058;9.028;2022-09-19T16:31:54;15.30;99.90
24103;DHT22;12278;53.058;9.028;2022-09-19T16:35:59;14.90;99.90
24103;DHT22;12278;53.058;9.028;2022-09-19T16:48:25;14.40;99.90
24103;DHT22;12278;53.058;9.028;2022-09-19T16:52:31;14.30;99.90
24103;DHT22;12278;53.058;9.028;2022-09-19T16:56:35;14.50;99.90
24103;DHT22;12278;53.058;9.028;2022-09-19T17:00:35;14.60;99.90
24103;DHT22;12278;53.058;9.028;2022-09-19T17:04:36;14.60;99.90
24103;DHT22;12278;53.058;9.028;2022-09-19T17:08:37;14.50;99.90
24103;DHT22;12278;53.058;9.028;2022-09-19T17:12:38;14.40;99.90
24103;DHT22;12278;53.058;9.028;2022-09-19T17:16:39;14.20;99.90
24103;DHT22;12278;53.058;9.028;2022-09-19T17:20:41;14.10;99.90
24103;DHT22;12278;53.058;9.028;2022-09-19T17:24:44;14.00;99.90
24103;DHT22;12278;53.058;9.028;2022-09-19T17:28:46;13.80;99.90
24103;DHT22;12278;53.058;9.028;2022-09-19T17:32:46;13.70;99.90
24103;DHT22;12278;53.058;9.028;2022-09-19T17:36:47;13.50;99.90
24103;DHT22;12278;53.058;9.028;2022-09-19T17:40:48;13.40;99.90
24103;DHT22;12278;53.058;9.028;2022-09-19T17:44:48;13.20;99.90
24103;DHT22;12278;53.058;9.028;2022-09-19T17:48:50;13.10;99.90
24103;DHT22;12278;53.058;9.028;2022-09-19T17:52:52;13.00;99.90
24103;DHT22;12278;53.058;9.028;2022-09-19T17:56:53;12.80;99.90
24103;DHT22;12278;53.058;9.028;2022-09-19T18:00:56;12.70;99.90
24103;DHT22;12278;53.058;9.028;2022-09-19T18:05:17;12.50;99.90
24103;DHT22;12278;53.058;9.028;2022-09-19T18:09:23;12.60;99.90
24103;DHT22;12278;53.058;9.028;2022-09-19T18:13:26;12.50;99.90
24103;DHT22;12278;53.058;9.028;2022-09-19T18:17:27;12.50;99.90
24103;DHT22;12278;53.058;9.028;2022-09-19T18:21:32;12.50;99.90
24103;DHT22;12278;53.058;9.028;2022-09-19T18:25:33;12.40;99.90
24103;DHT22;12278;53.058;9.028;2022-09-19T18:29:33;12.40;99.90
24103;DHT22;12278;53.058;9.028;2022-09-19T18:33:40;12.20;99.90
24103;DHT22;12278;53.058;9.028;2022-09-19T18:37:45;12.20;99.90
24103;DHT22;12278;53.058;9.028;2022-09-19T18:41:46;12.30;99.90
24103;DHT22;12278;53.058;9.028;2022-09-19T18:45:48;12.20;99.90
24103;DHT22;12278;53.058;9.028;2022-09-19T18:49:49;12.30;99.90
24103;DHT22;12278;53.058;9.028;2022-09-19T18:53:52;12.20;99.90
24103;DHT22;12278;53.058;9.028;2022-09-19T18:57:54;12.10;99.90
24103;DHT22;12278;53.058;9.028;2022-09-19T19:01:55;12.00;99.90
24103;DHT22;12278;53.058;9.028;2022-09-19T19:06:00;11.90;99.90
24103;DHT22;12278;53.058;9.028;2022-09-19T19:10:05;11.90;99.90
24103;DHT22;12278;53.058;9.028;2022-09-19T19:14:08;11.90;99.90
24103;DHT22;12278;53.058;9.028;2022-09-19T19:18:09;11.80;99.90
24103;DHT22;12278;53.058;9.028;2022-09-19T19:22:13;11.60;99.90
24103;DHT22;12278;53.058;9.028;2022-09-19T19:26:15;11.60;99.90
24103;DHT22;12278;53.058;9.028;2022-09-19T19:30:17;11.60;99.90
24103;DHT22;12278;53.058;9.028;2022-09-19T19:34:18;11.50;99.90
24103;DHT22;12278;53.058;9.028;2022-09-19T19:38:19;11.50;99.90
24103;DHT22;12278;53.058;9.028;2022-09-19T19:42:20;11.50;99.90
24103;DHT22;12278;53.058;9.028;2022-09-19T19:46:23;11.50;99.90
24103;DHT22;12278;53.058;9.028;2022-09-19T19:50:28;11.40;99.90
24103;DHT22;12278;53.058;9.028;2022-09-19T19:54:29;11.40;99.90
24103;DHT22;12278;53.058;9.028;2022-09-19T19:58:32;11.40;99.90
24103;DHT22;12278;53.058;9.028;2022-09-19T20:02:34;11.30;99.90
24103;DHT22;12278;53.058;9.028;2022-09-19T20:06:37;11.30;99.90
24103;DHT22;12278;53.058;9.028;2022-09-19T20:10:42;11.20;99.90
24103;DHT22;12278;53.058;9.028;2022-09-19T20:14:54;11.20;99.90
24103;DHT22;12278;53.058;9.028;2022-09-19T20:18:55;11.20;99.90
24103;DHT22;12278;53.058;9.028;2022-09-19T20:23:03;11.10;99.90
24103;DHT22;12278;53.058;9.028;2022-09-19T20:27:04;11.00;99.90
24103;DHT22;12278;53.058;9.028;2022-09-19T20:31:07;11.10;99.90
24103;DHT22;12278;53.058;9.028;2022-09-19T20:35:09;11.00;99.90
24103;DHT22;12278;53.058;9.028;2022-09-19T20:39:10;10.90;99.90
24103;DHT22;12278;53.058;9.028;2022-09-19T20:43:11;11.00;99.90
24103;DHT22;12278;53.058;9.028;2022-09-19T20:47:12;10.90;99.90
24103;DHT22;12278;53.058;9.028;2022-09-19T20:51:21;11.00;99.90
24103;DHT22;12278;53.058;9.028;2022-09-19T20:55:23;11.00;99.90
24103;DHT22;12278;53.058;9.028;2022-09-19T20:59:24;10.90;99.90
24103;DHT22;12278;53.058;9.028;2022-09-19T21:03:25;10.90;99.90
24103;DHT22;12278;53.058;9.028;2022-09-19T21:07:28;10.90;99.90
24103;DHT22;12278;53.058;9.028;2022-09-19T21:11:29;10.90;99.90
24103;DHT22;12278;53.058;9.028;2022-09-19T21:15:30;10.90;99.90
24103;DHT22;12278;53.058;9.028;2022-09-19T21:19:32;10.80;99.90
24103;DHT22;12278;53.058;9.028;2022-09-19T21:23:37;10.80;99.90
24103;DHT22;12278;53.058;9.028;2022-09-19T21:27:40;10.70;99.90
24103;DHT22;12278;53.058;9.028;2022-09-19T21:31:42;10.60;99.90
24103;DHT22;12278;53.058;9.028;2022-09-19T21:35:42;10.60;99.90
24103;DHT22;12278;53.058;9.028;2022-09-19T21:39:43;10.50;99.90
24103;DHT22;12278;53.058;9.028;2022-09-19T21:43:44;10.40;99.90
24103;DHT22;12278;53.058;9.028;2022-09-19T21:47:47;10.50;99.90
24103;DHT22;12278;53.058;9.028;2022-09-19T21:51:53;10.50;99.90
24103;DHT22;12278;53.058;9.028;2022-09-19T21:55:55;10.40;99.90
24103;DHT22;12278;53.058;9.028;2022-09-19T21:59:57;10.40;99.90
24103;DHT22;12278;53.058;9.028;2022-09-19T22:03:58;10.30;99.90
24103;DHT22;12278;53.058;9.028;2022-09-19T22:07:59;10.30;99.90
24103;DHT22;12278;53.058;9.028;2022-09-19T22:12:00;10.30;99.90
24103;DHT22;12278;53.058;9.028;2022-09-19T22:16:04;10.30;99.90
24103;DHT22;12278;53.058;9.028;2022-09-19T22:20:07;10.30;99.90
24103;DHT22;12278;53.058;9.028;2022-09-19T22:24:08;10.30;99.90
24103;DHT22;12278;53.058;9.028;2022-09-19T22:28:10;10.20;99.90
24103;DHT22;12278;53.058;9.028;2022-09-19T22:32:14;10.20;99.90
24103;DHT22;12278;53.058;9.028;2022-09-19T22:36:19;10.10;99.90
24103;DHT22;12278;53.058;9.028;2022-09-19T22:40:21;10.10;99.90
24103;DHT22;12278;53.058;9.028;2022-09-19T22:44:23;10.10;99.90
24103;DHT22;12278;53.058;9.028;2022-09-19T22:48:25;10.00;99.90
24103;DHT22;12278;53.058;9.028;2022-09-19T22:52:26;10.00;99.90
24103;DHT22;12278;53.058;9.028;2022-09-19T22:56:28;10.00;99.90
24103;DHT22;12278;53.058;9.028;2022-09-19T23:00:29;10.00;99.90
24103;DHT22;12278;53.058;9.028;2022-09-19T23:04:33;10.00;99.90
24103;DHT22;12278;53.058;9.028;2022-09-19T23:08:34;10.00;99.90
24103;DHT22;12278;53.058;9.028;2022-09-19T23:12:41;9.90;99.90
24103;DHT22;12278;53.058;9.028;2022-09-19T23:16:43;9.90;99.90
24103;DHT22;12278;53.058;9.028;2022-09-19T23:20:44;9.90;99.90
24103;DHT22;12278;53.058;9.028;2022-09-19T23:24:45;9.90;99.90
24103;DHT22;12278;53.058;9.028;2022-09-19T23:28:46;9.80;99.90
24103;DHT22;12278;53.058;9.028;2022-09-19T23:32:47;9.80;99.90
24103;DHT22;12278;53.058;9.028;2022-09-19T23:36:49;9.80;99.90
24103;DHT22;12278;53.058;9.028;2022-09-19T23:41:00;9.70;99.90
24103;DHT22;12278;53.058;9.028;2022-09-19T23:45:04;9.80;99.90
24103;DHT22;12278;53.058;9.028;2022-09-19T23:49:06;9.80;99.90
24103;DHT22;12278;53.058;9.028;2022-09-19T23:53:13;9.70;99.90
24103;DHT22;12278;53.058;9.028;2022-09-19T23:57:14;9.70;99.90
